Time;durP1;ratioP1;P1;durP2;ratioP2;P2;SDS_P1;SDS_P2;PMS_P1;PMS_P2;Temp;Humidity;BMP_temperature;BMP_pressure;BME280_temperature;BME280_humidity;BME280_pressure;Samples;Min_cycle;Max_cycle;Signal;HPM_P1;HPM_P2
2021/03/19 00:01:16;;;;;;;16.67;9.13;;;;;;;;;;4958274;28;20086;-82
2021/03/19 00:03:42;;;;;;;16.45;9.35;;;;;;;;;;4978425;28;20047;-82
2021/03/19 00:06:09;;;;;;;16.15;10.35;;;;;;;;;;4976647;28;20054;-82
2021/03/19 00:08:35;;;;;;;15.35;10.15;;;;;;;;;;4952643;28;20051;-82
2021/03/19 00:11:02;;;;;;;16.58;10.15;;;;;;;;;;4976414;28;20398;-82
2021/03/19 00:13:28;;;;;;;16.98;10.90;;;;;;;;;;4977435;28;20046;-82
2021/03/19 00:15:54;;;;;;;17.45;10.95;;;;;;;;;;4975112;28;20078;-83
2021/03/19 00:18:21;;;;;;;17.45;10.40;;;;;;;;;;4975690;28;20059;-82
2021/03/19 00:20:48;;;;;;;16.85;10.02;;;;;;;;;;4960259;28;20043;-82
2021/03/19 00:23:15;;;;;;;17.17;10.25;;;;;;;;;;4976190;28;20050;-82
2021/03/19 00:25:42;;;;;;;19.35;12.10;;;;;;;;;;4976591;28;20063;-82
2021/03/19 00:28:13;;;;;;;19.13;11.85;;;;;;;;;;4967349;28;20043;-82
2021/03/19 00:30:40;;;;;;;17.55;10.30;;;;;;;;;;4961394;28;20074;-82
2021/03/19 00:33:06;;;;;;;19.15;11.73;;;;;;;;;;4976453;28;20062;-82
2021/03/19 00:35:32;;;;;;;19.00;12.68;;;;;;;;;;4975365;28;20078;-82
2021/03/19 00:37:58;;;;;;;20.38;11.95;;;;;;;;;;4978932;28;20657;-83
2021/03/19 00:40:25;;;;;;;17.23;11.18;;;;;;;;;;4976659;28;20639;-82
2021/03/19 00:42:51;;;;;;;20.83;11.95;;;;;;;;;;4977099;28;20054;-83
2021/03/19 00:45:18;;;;;;;16.58;10.93;;;;;;;;;;4978826;28;20050;-82
2021/03/19 00:47:44;;;;;;;16.35;10.32;;;;;;;;;;4983092;28;20054;-82
2021/03/19 00:50:12;;;;;;;19.42;11.10;;;;;;;;;;4981039;28;20047;-83
2021/03/19 00:52:39;;;;;;;17.85;11.20;;;;;;;;;;4980363;28;20047;-82
2021/03/19 00:55:06;;;;;;;15.85;10.38;;;;;;;;;;4980400;28;20110;-83
2021/03/19 00:57:33;;;;;;;21.02;12.50;;;;;;;;;;4980662;28;20050;-83
2021/03/19 00:59:59;;;;;;;18.17;11.55;;;;;;;;;;4978274;28;20098;-83
2021/03/19 01:02:25;;;;;;;21.70;12.45;;;;;;;;;;4977988;28;20113;-82
2021/03/19 01:04:52;;;;;;;18.58;11.95;;;;;;;;;;4981434;28;20046;-82
2021/03/19 01:07:19;;;;;;;20.02;11.18;;;;;;;;;;4984910;28;20594;-82
2021/03/19 01:09:45;;;;;;;17.38;11.80;;;;;;;;;;4982983;28;20050;-82
2021/03/19 01:12:12;;;;;;;19.58;11.52;;;;;;;;;;4984007;28;20058;-82
2021/03/19 01:14:39;;;;;;;19.42;11.90;;;;;;;;;;4978889;28;20054;-83
2021/03/19 01:17:04;;;;;;;23.92;12.93;;;;;;;;;;4980004;28;20483;-82
2021/03/19 01:19:30;;;;;;;21.63;12.52;;;;;;;;;;4978242;28;20054;-83
2021/03/19 01:21:57;;;;;;;18.25;11.63;;;;;;;;;;4964677;28;20061;-83
2021/03/19 01:24:22;;;;;;;19.73;12.05;;;;;;;;;;4959474;29;20047;-83
2021/03/19 01:26:48;;;;;;;19.15;11.45;;;;;;;;;;4963180;28;20114;-82
2021/03/19 01:29:21;;;;;;;16.33;10.15;;;;;;;;;;4980648;28;20047;-83
2021/03/19 01:31:48;;;;;;;20.45;11.73;;;;;;;;;;4980201;28;20070;-83
2021/03/19 01:34:14;;;;;;;16.27;10.20;;;;;;;;;;4979637;28;20051;-83
2021/03/19 01:36:40;;;;;;;19.38;11.13;;;;;;;;;;4979627;28;20058;-83
2021/03/19 01:39:06;;;;;;;19.80;11.32;;;;;;;;;;4978048;28;20046;-82
2021/03/19 01:41:32;;;;;;;19.65;11.48;;;;;;;;;;4962519;28;20058;-83
2021/03/19 01:43:59;;;;;;;21.15;12.85;;;;;;;;;;4977313;28;20050;-83
2021/03/19 01:47:03;;;;;;;21.52;13.00;;;;;;;;;;4979573;28;20047;-83
2021/03/19 01:50:06;;;;;;;24.13;13.57;;;;;;;;;;4969125;28;20043;-83
2021/03/19 01:53:09;;;;;;;19.75;11.73;;;;;;;;;;4960626;29;20051;-83
2021/03/19 01:56:24;;;;;;;19.60;12.07;;;;;;;;;;4979461;28;20057;-83
2021/03/19 01:59:23;;;;;;;21.38;12.95;;;;;;;;;;4920170;29;20052;-83
2021/03/19 02:02:26;;;;;;;18.50;11.48;;;;;;;;;;4957012;28;20042;-82
2021/03/19 02:05:30;;;;;;;24.73;12.88;;;;;;;;;;4964885;28;20047;-83
2021/03/19 02:08:33;;;;;;;20.20;10.55;;;;;;;;;;4964811;28;20044;-83
2021/03/19 02:11:37;;;;;;;20.20;11.25;;;;;;;;;;4960764;29;20050;-84
2021/03/19 02:14:40;;;;;;;20.58;11.43;;;;;;;;;;4968498;28;20414;-83
2021/03/19 02:17:44;;;;;;;20.02;11.80;;;;;;;;;;4979020;28;20155;-83
2021/03/19 02:20:47;;;;;;;17.15;11.00;;;;;;;;;;4979532;28;20098;-83
2021/03/19 02:23:50;;;;;;;20.52;12.00;;;;;;;;;;4979487;28;20050;-83
2021/03/19 02:26:54;;;;;;;21.00;10.82;;;;;;;;;;4960005;29;20427;-83
2021/03/19 02:29:57;;;;;;;19.67;11.32;;;;;;;;;;4977341;28;20053;-84
2021/03/19 02:32:25;;;;;;;20.42;11.95;;;;;;;;;;4972503;28;20058;-83
2021/03/19 02:34:54;;;;;;;16.60;10.25;;;;;;;;;;4959424;29;20102;-83
2021/03/19 02:37:22;;;;;;;17.13;10.20;;;;;;;;;;4967225;28;20038;-83
2021/03/19 02:39:48;;;;;;;20.35;11.20;;;;;;;;;;4986413;28;20042;-82
2021/03/19 02:42:17;;;;;;;21.92;13.10;;;;;;;;;;4982507;28;20047;-83
2021/03/19 02:44:43;;;;;;;25.50;13.85;;;;;;;;;;4971660;28;20046;-83
2021/03/19 02:47:10;;;;;;;21.25;12.27;;;;;;;;;;4966049;28;20057;-83
2021/03/19 02:49:37;;;;;;;30.20;14.55;;;;;;;;;;4984393;28;20510;-83
2021/03/19 02:52:04;;;;;;;19.17;11.75;;;;;;;;;;4963478;28;20046;-83
2021/03/19 02:54:31;;;;;;;18.65;11.48;;;;;;;;;;4979872;28;20388;-83
2021/03/19 02:56:57;;;;;;;24.55;13.85;;;;;;;;;;4979374;28;20042;-83
2021/03/19 02:59:22;;;;;;;22.50;13.25;;;;;;;;;;4979169;28;20051;-83
2021/03/19 03:01:49;;;;;;;17.10;11.15;;;;;;;;;;4980425;28;20058;-83
2021/03/19 03:04:16;;;;;;;22.20;12.23;;;;;;;;;;4979909;28;20042;-83
2021/03/19 03:06:46;;;;;;;17.80;11.45;;;;;;;;;;4975778;28;20057;-84
2021/03/19 03:09:16;;;;;;;19.33;10.93;;;;;;;;;;4961022;28;20047;-84
2021/03/19 03:11:42;;;;;;;25.23;13.43;;;;;;;;;;4960936;28;20074;-83
2021/03/19 03:14:11;;;;;;;21.98;12.38;;;;;;;;;;4962458;28;20051;-83
2021/03/19 03:16:37;;;;;;;19.27;10.88;;;;;;;;;;4979352;28;20050;-83
2021/03/19 03:19:04;;;;;;;18.33;10.70;;;;;;;;;;4978480;28;20569;-83
2021/03/19 03:21:30;;;;;;;18.75;10.90;;;;;;;;;;4968452;28;20065;-83
2021/03/19 03:23:57;;;;;;;21.05;12.13;;;;;;;;;;4969305;28;20047;-83
2021/03/19 03:26:23;;;;;;;20.98;10.80;;;;;;;;;;4960123;29;20058;-82
2021/03/19 03:28:49;;;;;;;27.02;14.63;;;;;;;;;;4959114;29;20051;-83
2021/03/19 03:31:15;;;;;;;21.38;11.60;;;;;;;;;;4960036;29;20047;-83
2021/03/19 03:33:41;;;;;;;22.45;12.30;;;;;;;;;;4957029;29;20098;-83
2021/03/19 03:36:08;;;;;;;20.33;11.63;;;;;;;;;;4971680;28;20055;-83
2021/03/19 03:38:34;;;;;;;23.60;12.98;;;;;;;;;;4959049;29;20051;-83
2021/03/19 03:41:02;;;;;;;23.00;13.50;;;;;;;;;;4959608;29;20051;-83
2021/03/19 03:43:29;;;;;;;20.20;11.30;;;;;;;;;;4978117;28;20046;-83
2021/03/19 03:45:55;;;;;;;22.23;11.57;;;;;;;;;;4978648;28;20058;-83
2021/03/19 03:48:23;;;;;;;22.10;12.98;;;;;;;;;;4978086;28;20070;-83
2021/03/19 03:50:49;;;;;;;20.20;11.27;;;;;;;;;;4978307;28;20093;-83
2021/03/19 03:53:15;;;;;;;22.23;12.63;;;;;;;;;;4977975;28;20051;-84
2021/03/19 03:55:43;;;;;;;21.55;12.48;;;;;;;;;;4989778;28;20055;-83
2021/03/19 03:58:11;;;;;;;21.75;11.77;;;;;;;;;;4985067;28;20046;-83
2021/03/19 04:00:37;;;;;;;23.05;12.88;;;;;;;;;;4978063;28;20058;-83
2021/03/19 04:03:06;;;;;;;20.58;11.98;;;;;;;;;;4981216;28;20049;-83
2021/03/19 04:05:34;;;;;;;23.70;12.55;;;;;;;;;;4988711;28;20050;-83
2021/03/19 04:08:00;;;;;;;26.20;12.45;;;;;;;;;;4981749;28;20490;-83
2021/03/19 04:10:26;;;;;;;22.30;12.10;;;;;;;;;;4977079;28;20051;-83
2021/03/19 04:12:53;;;;;;;24.30;14.27;;;;;;;;;;4979367;28;20042;-83
2021/03/19 04:15:21;;;;;;;22.45;13.48;;;;;;;;;;4978332;28;20090;-83
2021/03/19 04:17:47;;;;;;;18.67;10.77;;;;;;;;;;4977846;28;20047;-83
2021/03/19 04:20:15;;;;;;;20.00;10.77;;;;;;;;;;4981156;28;20143;-83
2021/03/19 04:22:41;;;;;;;21.52;10.98;;;;;;;;;;4981798;28;20051;-83
2021/03/19 04:25:08;;;;;;;23.42;13.27;;;;;;;;;;4973056;28;20051;-83
2021/03/19 04:27:40;;;;;;;20.23;11.25;;;;;;;;;;4981502;28;20051;-83
2021/03/19 04:30:08;;;;;;;26.83;13.07;;;;;;;;;;4981229;28;20403;-83
2021/03/19 04:32:34;;;;;;;18.48;10.63;;;;;;;;;;4980004;28;20059;-83
2021/03/19 04:35:00;;;;;;;20.15;10.18;;;;;;;;;;4973538;28;20048;-84
2021/03/19 04:37:26;;;;;;;21.35;11.65;;;;;;;;;;4968618;28;20121;-84
2021/03/19 04:39:52;;;;;;;24.17;12.93;;;;;;;;;;4979039;28;20479;-83
2021/03/19 04:42:18;;;;;;;22.50;12.02;;;;;;;;;;4971987;28;20106;-83
2021/03/19 04:44:46;;;;;;;23.80;12.55;;;;;;;;;;4966624;28;20097;-83
2021/03/19 04:47:13;;;;;;;20.58;11.98;;;;;;;;;;4979791;28;20454;-83
2021/03/19 04:49:40;;;;;;;21.40;11.27;;;;;;;;;;4980981;28;20051;-83
2021/03/19 04:52:06;;;;;;;21.77;12.10;;;;;;;;;;4984598;28;20066;-83
2021/03/19 04:54:32;;;;;;;21.08;11.60;;;;;;;;;;4980369;28;20050;-83
2021/03/19 04:56:59;;;;;;;19.27;10.95;;;;;;;;;;4980346;28;20050;-84
2021/03/19 04:59:25;;;;;;;21.40;12.32;;;;;;;;;;4963131;28;20513;-83
2021/03/19 05:01:53;;;;;;;20.17;11.85;;;;;;;;;;4966248;28;20043;-83
2021/03/19 05:04:21;;;;;;;23.90;13.25;;;;;;;;;;4998623;28;20192;-83
2021/03/19 05:06:48;;;;;;;26.50;13.77;;;;;;;;;;4967074;28;20571;-83
2021/03/19 05:09:14;;;;;;;24.48;12.80;;;;;;;;;;4973806;28;20384;-83
2021/03/19 05:11:40;;;;;;;25.88;13.65;;;;;;;;;;4989723;28;20482;-83
2021/03/19 05:14:07;;;;;;;27.05;13.68;;;;;;;;;;4980187;28;20081;-83
2021/03/19 05:16:33;;;;;;;24.30;12.80;;;;;;;;;;4978816;28;20051;-83
2021/03/19 05:18:59;;;;;;;26.10;12.35;;;;;;;;;;4961623;29;20051;-83
2021/03/19 05:21:25;;;;;;;25.55;12.80;;;;;;;;;;4965154;28;20051;-83
2021/03/19 05:23:52;;;;;;;26.27;13.48;;;;;;;;;;4978973;28;20049;-82
2021/03/19 05:26:18;;;;;;;23.73;11.93;;;;;;;;;;4963349;28;20102;-83
2021/03/19 05:28:44;;;;;;;24.52;12.82;;;;;;;;;;4959765;28;20047;-83
2021/03/19 05:31:09;;;;;;;23.33;12.75;;;;;;;;;;4961454;29;20094;-84
2021/03/19 05:33:44;;;;;;;24.80;11.98;;;;;;;;;;4970070;28;20051;-84
2021/03/19 05:36:12;;;;;;;22.33;12.55;;;;;;;;;;4968321;28;20411;-83
2021/03/19 05:38:38;;;;;;;24.15;12.63;;;;;;;;;;4978009;28;20049;-83
2021/03/19 05:41:06;;;;;;;24.08;12.75;;;;;;;;;;4979710;28;20055;-83
2021/03/19 05:43:35;;;;;;;22.13;12.40;;;;;;;;;;4980451;28;20065;-83
2021/03/19 05:46:05;;;;;;;23.83;12.63;;;;;;;;;;4991086;28;20050;-83
2021/03/19 05:48:39;;;;;;;20.52;12.75;;;;;;;;;;4981694;28;20136;-83
2021/03/19 05:51:06;;;;;;;23.70;12.55;;;;;;;;;;4981423;28;20042;-83
2021/03/19 05:53:40;;;;;;;25.13;13.45;;;;;;;;;;4981069;28;20055;-83
2021/03/19 05:56:12;;;;;;;26.35;13.13;;;;;;;;;;4976424;28;20113;-83
2021/03/19 05:58:38;;;;;;;23.42;12.00;;;;;;;;;;4961735;29;20055;-84
2021/03/19 06:01:04;;;;;;;22.38;11.20;;;;;;;;;;4974927;28;20185;-84
2021/03/19 06:03:30;;;;;;;23.88;12.27;;;;;;;;;;4979594;28;20067;-84
2021/03/19 06:05:59;;;;;;;23.13;11.80;;;;;;;;;;4981673;28;20042;-81
2021/03/19 06:08:31;;;;;;;20.38;11.70;;;;;;;;;;4983350;28;20058;-82
2021/03/19 06:11:14;;;;;;;24.55;12.38;;;;;;;;;;4974080;28;20384;-82
2021/03/19 06:13:46;;;;;;;28.25;13.23;;;;;;;;;;4967604;28;20050;-82
2021/03/19 06:16:27;;;;;;;22.10;12.65;;;;;;;;;;4971238;28;20051;-83
2021/03/19 06:18:55;;;;;;;24.15;12.75;;;;;;;;;;4970942;28;20047;-83
2021/03/19 06:21:26;;;;;;;25.75;12.73;;;;;;;;;;4970884;28;20046;-84
2021/03/19 06:24:12;;;;;;;23.52;12.38;;;;;;;;;;4975180;28;20407;-84
2021/03/19 06:26:41;;;;;;;27.73;13.85;;;;;;;;;;4966855;28;20062;-84
2021/03/19 06:29:15;;;;;;;34.53;17.58;;;;;;;;;;4961905;29;20079;-84
2021/03/19 06:31:43;;;;;;;42.60;19.30;;;;;;;;;;4980526;28;20399;-85
2021/03/19 06:34:12;;;;;;;44.58;22.55;;;;;;;;;;4978071;28;20047;-82
2021/03/19 06:36:55;;;;;;;38.28;18.15;;;;;;;;;;4986376;28;20042;-82
2021/03/19 06:39:24;;;;;;;28.10;15.18;;;;;;;;;;4970835;28;20074;-81
2021/03/19 06:42:04;;;;;;;25.48;14.25;;;;;;;;;;4974233;28;20058;-82
2021/03/19 06:44:30;;;;;;;26.88;15.43;;;;;;;;;;4962626;28;20047;-81
2021/03/19 06:46:58;;;;;;;26.17;14.25;;;;;;;;;;4969273;28;20050;-80
2021/03/19 06:49:24;;;;;;;26.20;13.70;;;;;;;;;;4970333;28;20051;-81
2021/03/19 06:51:52;;;;;;;26.58;13.38;;;;;;;;;;4978162;28;20054;-81
2021/03/19 06:54:21;;;;;;;27.05;13.20;;;;;;;;;;4977014;28;20093;-80
2021/03/19 06:57:08;;;;;;;25.70;13.15;;;;;;;;;;4983340;28;20046;-82
2021/03/19 06:59:43;;;;;;;24.92;12.13;;;;;;;;;;4977238;28;20047;-82
2021/03/19 07:02:40;;;;;;;26.33;13.55;;;;;;;;;;4961658;28;20043;-81
2021/03/19 07:05:17;;;;;;;23.75;12.27;;;;;;;;;;4963090;28;20051;-80
2021/03/19 07:07:51;;;;;;;27.35;14.43;;;;;;;;;;4977065;28;20050;-80
2021/03/19 07:10:35;;;;;;;24.70;14.52;;;;;;;;;;4961115;28;20078;-80
2021/03/19 07:13:11;;;;;;;24.65;13.77;;;;;;;;;;4980891;28;20051;-84
2021/03/19 07:15:46;;;;;;;22.85;12.50;;;;;;;;;;4978332;28;20054;-81
2021/03/19 07:18:24;;;;;;;24.25;13.88;;;;;;;;;;4978603;28;20043;-81
2021/03/19 07:21:06;;;;;;;26.58;14.95;;;;;;;;;;4964874;28;20424;-81
2021/03/19 07:23:42;;;;;;;26.48;16.50;;;;;;;;;;4974565;28;20051;-82
2021/03/19 07:26:11;;;;;;;29.80;15.93;;;;;;;;;;4975166;28;20058;-82
2021/03/19 07:28:54;;;;;;;29.42;14.63;;;;;;;;;;4977716;28;20069;-83
2021/03/19 07:31:41;;;;;;;28.45;15.27;;;;;;;;;;4965824;28;20055;-82
2021/03/19 07:34:20;;;;;;;28.05;14.32;;;;;;;;;;4954219;28;20062;-81
2021/03/19 07:36:53;;;;;;;28.25;15.07;;;;;;;;;;4977700;28;20042;-81
2021/03/19 07:39:46;;;;;;;25.13;14.60;;;;;;;;;;4976400;28;20058;-80
2021/03/19 07:42:36;;;;;;;26.52;14.48;;;;;;;;;;4971427;28;20047;-80
2021/03/19 07:45:07;;;;;;;27.60;14.60;;;;;;;;;;4974065;28;20168;-83
2021/03/19 07:48:05;;;;;;;28.73;16.00;;;;;;;;;;4983329;28;20106;-81
2021/03/19 07:50:37;;;;;;;23.15;13.57;;;;;;;;;;4963485;28;20055;-79
2021/03/19 07:53:18;;;;;;;25.50;13.13;;;;;;;;;;4969634;28;20047;-79
2021/03/19 07:55:52;;;;;;;25.83;14.85;;;;;;;;;;4978202;28;20050;-80
2021/03/19 07:58:28;;;;;;;24.25;14.20;;;;;;;;;;4976728;28;20049;-79
2021/03/19 08:01:10;;;;;;;27.85;14.75;;;;;;;;;;4974260;28;20403;-80
2021/03/19 08:03:37;;;;;;;23.60;14.13;;;;;;;;;;4972045;28;20066;-80
2021/03/19 08:06:10;;;;;;;21.88;13.52;;;;;;;;;;4975736;28;20055;-80
2021/03/19 08:08:40;;;;;;;22.13;14.30;;;;;;;;;;4972019;28;20072;-80
2021/03/19 08:11:13;;;;;;;22.55;13.20;;;;;;;;;;4971838;28;20487;-80
2021/03/19 08:13:49;;;;;;;23.98;13.15;;;;;;;;;;4976102;28;20484;-81
2021/03/19 08:16:18;;;;;;;;;;;;;;;;;;4979441;28;20047;-79
2021/03/19 08:18:49;;;;;;;25.25;14.63;;;;;;;;;;4983920;28;20357;-80
2021/03/19 08:21:22;;;;;;;23.40;15.02;;;;;;;;;;4974746;28;20058;-80
2021/03/19 08:23:55;;;;;;;25.95;14.90;;;;;;;;;;4979431;28;20047;-80
2021/03/19 08:26:25;;;;;;;23.65;14.63;;;;;;;;;;4976909;28;20043;-83
2021/03/19 08:28:55;;;;;;;23.00;13.85;;;;;;;;;;4981883;28;20047;-80
2021/03/19 08:31:28;;;;;;;23.85;14.65;;;;;;;;;;4971886;28;20051;-80
2021/03/19 08:34:05;;;;;;;24.55;15.15;;;;;;;;;;4962290;28;20054;-81
2021/03/19 08:36:39;;;;;;;24.70;15.93;;;;;;;;;;4967821;28;20050;-83
2021/03/19 08:39:13;;;;;;;25.27;15.35;;;;;;;;;;4969206;28;20070;-80
2021/03/19 08:41:42;;;;;;;25.27;15.07;;;;;;;;;;4973625;28;20066;-82
2021/03/19 08:44:13;;;;;;;24.85;14.98;;;;;;;;;;4978529;28;20055;-82
2021/03/19 08:46:44;;;;;;;29.08;16.70;;;;;;;;;;4976510;28;20046;-81
2021/03/19 08:49:13;;;;;;;25.35;15.55;;;;;;;;;;4970581;28;20391;-81
2021/03/19 08:51:43;;;;;;;27.17;16.52;;;;;;;;;;4968460;28;20043;-80
2021/03/19 08:54:18;;;;;;;29.98;16.83;;;;;;;;;;4969347;28;20043;-81
2021/03/19 08:56:46;;;;;;;23.50;15.25;;;;;;;;;;4977767;28;20047;-81
2021/03/19 08:59:46;;;;;;;27.05;16.50;;;;;;;;;;4970009;28;20065;-83
2021/03/19 09:02:45;;;;;;;27.23;16.55;;;;;;;;;;4971972;28;20054;-81
2021/03/19 09:05:31;;;;;;;24.33;15.35;;;;;;;;;;4961075;28;20058;-81
2021/03/19 09:08:22;;;;;;;25.85;16.42;;;;;;;;;;4972091;28;20046;-80
2021/03/19 09:11:11;;;;;;;22.85;14.75;;;;;;;;;;4980151;28;20058;-80
2021/03/19 09:13:38;;;;;;;21.25;13.02;;;;;;;;;;4977546;28;20574;-80
2021/03/19 09:16:43;;;;;;;20.10;12.55;;;;;;;;;;4972072;28;20121;-80
2021/03/19 09:20:06;;;;;;;20.15;12.68;;;;;;;;;;4973119;28;20047;-80
2021/03/19 09:22:44;;;;;;;17.02;10.93;;;;;;;;;;4912327;29;20047;-80
2021/03/19 09:25:39;;;;;;;19.40;13.27;;;;;;;;;;4930193;29;20103;-80
2021/03/19 09:28:25;;;;;;;18.17;11.57;;;;;;;;;;4967790;28;20048;-80
2021/03/19 09:30:55;;;;;;;17.27;11.90;;;;;;;;;;4968449;28;20093;-80
2021/03/19 09:34:03;;;;;;;17.55;11.23;;;;;;;;;;4976250;28;20043;-80
2021/03/19 09:36:58;;;;;;;17.67;11.57;;;;;;;;;;4975109;28;20055;-80
2021/03/19 09:40:01;;;;;;;16.27;10.57;;;;;;;;;;4966752;28;20047;-81
2021/03/19 09:42:48;;;;;;;15.00;10.23;;;;;;;;;;4971373;28;20122;-81
2021/03/19 09:45:44;;;;;;;15.73;11.65;;;;;;;;;;4975219;28;20053;-80
2021/03/19 09:48:27;;;;;;;18.08;11.57;;;;;;;;;;4966952;28;20447;-80
2021/03/19 09:50:57;;;;;;;15.75;10.77;;;;;;;;;;4972906;28;20051;-80
2021/03/19 09:53:30;;;;;;;15.02;10.90;;;;;;;;;;4976479;28;20487;-80
2021/03/19 09:55:58;;;;;;;16.20;10.63;;;;;;;;;;4969532;28;20051;-80
2021/03/19 09:58:31;;;;;;;17.92;11.15;;;;;;;;;;4966258;28;20051;-80
2021/03/19 10:01:02;;;;;;;17.42;11.32;;;;;;;;;;4971960;28;20055;-80
2021/03/19 10:03:30;;;;;;;14.75;10.43;;;;;;;;;;4973646;28;20143;-80
2021/03/19 10:05:56;;;;;;;16.80;10.45;;;;;;;;;;4972417;28;20055;-80
2021/03/19 10:08:26;;;;;;;18.42;11.07;;;;;;;;;;4969494;28;20039;-81
2021/03/19 10:11:03;;;;;;;16.92;12.00;;;;;;;;;;4975081;28;20054;-81
2021/03/19 10:13:30;;;;;;;15.10;10.57;;;;;;;;;;4973909;28;20048;-81
2021/03/19 10:15:58;;;;;;;16.35;11.40;;;;;;;;;;4963681;28;20043;-81
2021/03/19 10:18:31;;;;;;;13.25;9.00;;;;;;;;;;4972682;28;20058;-82
2021/03/19 10:21:00;;;;;;;14.23;9.23;;;;;;;;;;4969183;28;20050;-81
2021/03/19 10:23:30;;;;;;;14.57;9.40;;;;;;;;;;4973491;28;20101;-81
2021/03/19 10:26:06;;;;;;;11.43;7.20;;;;;;;;;;4976667;28;20074;-81
2021/03/19 10:28:33;;;;;;;13.20;8.65;;;;;;;;;;4966980;28;20050;-82
2021/03/19 10:31:01;;;;;;;13.00;9.25;;;;;;;;;;4969940;28;20051;-81
2021/03/19 10:33:35;;;;;;;12.65;8.77;;;;;;;;;;4977708;28;20118;-82
2021/03/19 10:36:05;;;;;;;13.68;9.63;;;;;;;;;;4971480;28;20047;-81
2021/03/19 10:38:37;;;;;;;12.95;9.68;;;;;;;;;;4968617;28;20047;-82
2021/03/19 10:41:10;;;;;;;11.70;8.35;;;;;;;;;;4970598;28;20043;-81
2021/03/19 10:43:44;;;;;;;13.43;9.23;;;;;;;;;;4976208;28;20586;-81
2021/03/19 10:46:15;;;;;;;10.93;8.73;;;;;;;;;;4982480;28;20054;-82
2021/03/19 10:48:44;;;;;;;13.90;9.07;;;;;;;;;;4971425;28;20043;-85
2021/03/19 10:51:17;;;;;;;14.27;9.98;;;;;;;;;;4969671;28;20051;-82
2021/03/19 10:53:55;;;;;;;14.45;10.05;;;;;;;;;;4980669;28;20446;-85
2021/03/19 10:56:22;;;;;;;14.25;9.30;;;;;;;;;;4977691;28;20055;-84
2021/03/19 10:59:13;;;;;;;14.27;10.80;;;;;;;;;;4967989;28;20466;-85
2021/03/19 11:01:50;;;;;;;14.40;10.02;;;;;;;;;;4970539;28;20086;-84
2021/03/19 11:04:30;;;;;;;18.42;12.15;;;;;;;;;;4982863;28;20092;-84
2021/03/19 11:06:56;;;;;;;17.13;12.65;;;;;;;;;;4971331;28;20111;-84
2021/03/19 11:09:24;;;;;;;16.27;11.93;;;;;;;;;;4968290;28;20050;-86
2021/03/19 11:11:53;;;;;;;15.25;12.02;;;;;;;;;;4968691;28;20085;-83
2021/03/19 11:14:24;;;;;;;19.92;12.35;;;;;;;;;;4983595;28;20137;-83
2021/03/19 11:16:52;;;;;;;16.38;12.30;;;;;;;;;;4968469;28;20050;-82
2021/03/19 11:19:22;;;;;;;16.88;11.68;;;;;;;;;;4972411;28;20049;-84
2021/03/19 11:21:56;;;;;;;15.30;11.52;;;;;;;;;;4972277;28;20050;-86
2021/03/19 11:24:25;;;;;;;18.92;13.00;;;;;;;;;;4976475;28;20102;-82
2021/03/19 11:27:08;;;;;;;17.20;11.60;;;;;;;;;;4972871;28;20047;-85
2021/03/19 11:29:36;;;;;;;15.43;10.52;;;;;;;;;;4974766;28;20098;-80
2021/03/19 11:32:07;;;;;;;16.00;9.82;;;;;;;;;;4974977;28;20062;-81
2021/03/19 11:34:38;;;;;;;12.05;8.52;;;;;;;;;;4970183;28;20051;-84
2021/03/19 11:37:07;;;;;;;11.00;7.80;;;;;;;;;;4973992;28;20075;-82
2021/03/19 11:39:53;;;;;;;10.35;7.30;;;;;;;;;;4977677;28;20043;-82
2021/03/19 11:42:22;;;;;;;8.50;6.30;;;;;;;;;;4973204;28;20042;-82
2021/03/19 11:44:51;;;;;;;8.70;6.05;;;;;;;;;;4967175;28;20070;-83
2021/03/19 11:47:19;;;;;;;7.20;5.00;;;;;;;;;;4968319;28;20118;-83
2021/03/19 11:49:46;;;;;;;5.75;4.65;;;;;;;;;;4973992;28;20101;-83
2021/03/19 11:52:16;;;;;;;6.78;5.10;;;;;;;;;;4971760;28;20488;-84
2021/03/19 11:54:43;;;;;;;6.35;5.28;;;;;;;;;;4971718;28;20082;-83
2021/03/19 11:57:10;;;;;;;9.07;6.00;;;;;;;;;;4976254;28;20061;-84
2021/03/19 11:59:37;;;;;;;9.57;6.65;;;;;;;;;;4963895;28;20702;-81
2021/03/19 12:02:16;;;;;;;9.55;5.95;;;;;;;;;;4959220;28;20094;-82
2021/03/19 12:04:42;;;;;;;6.78;4.65;;;;;;;;;;4977387;28;20058;-82
2021/03/19 12:07:09;;;;;;;6.10;4.63;;;;;;;;;;4976888;28;20050;-82
2021/03/19 12:09:37;;;;;;;7.35;5.53;;;;;;;;;;4972813;28;20074;-83
2021/03/19 12:12:04;;;;;;;7.32;4.85;;;;;;;;;;4968814;28;20050;-82
2021/03/19 12:14:30;;;;;;;5.93;4.45;;;;;;;;;;4969261;28;20043;-82
2021/03/19 12:16:56;;;;;;;6.47;4.72;;;;;;;;;;4972755;28;20054;-82
2021/03/19 12:19:24;;;;;;;6.50;4.82;;;;;;;;;;4970552;28;20043;-82
2021/03/19 12:21:50;;;;;;;9.98;6.43;;;;;;;;;;4969555;28;20046;-82
2021/03/19 12:24:16;;;;;;;9.00;6.18;;;;;;;;;;4972311;28;20078;-82
2021/03/19 12:26:42;;;;;;;8.52;5.53;;;;;;;;;;4971378;28;20110;-81
2021/03/19 12:29:08;;;;;;;8.95;6.40;;;;;;;;;;4966445;28;20484;-82
2021/03/19 12:31:34;;;;;;;9.38;6.10;;;;;;;;;;4979483;28;20070;-82
2021/03/19 12:34:00;;;;;;;9.52;6.28;;;;;;;;;;4982287;28;20051;-81
2021/03/19 12:36:27;;;;;;;8.27;6.78;;;;;;;;;;4969447;28;20073;-81
2021/03/19 12:38:54;;;;;;;8.73;6.07;;;;;;;;;;4967908;28;20376;-82
2021/03/19 12:41:20;;;;;;;7.35;5.70;;;;;;;;;;4983077;28;20055;-82
2021/03/19 12:43:46;;;;;;;7.82;6.05;;;;;;;;;;4973465;28;20043;-82
2021/03/19 12:46:13;;;;;;;7.18;5.38;;;;;;;;;;4976880;28;20149;-82
2021/03/19 12:48:40;;;;;;;7.60;5.20;;;;;;;;;;4977453;28;20043;-84
2021/03/19 12:51:06;;;;;;;7.47;6.28;;;;;;;;;;4976873;28;20047;-83
2021/03/19 12:53:34;;;;;;;8.27;5.07;;;;;;;;;;4974953;28;20101;-81
2021/03/19 12:56:04;;;;;;;7.55;5.43;;;;;;;;;;4979364;28;20050;-84
2021/03/19 12:58:31;;;;;;;7.28;5.80;;;;;;;;;;4978956;28;20043;-84
2021/03/19 13:00:58;;;;;;;8.55;5.72;;;;;;;;;;4976319;28;20043;-85
2021/03/19 13:03:25;;;;;;;8.70;5.65;;;;;;;;;;4970532;28;20105;-82
2021/03/19 13:05:53;;;;;;;6.80;4.85;;;;;;;;;;4990933;28;20548;-85
2021/03/19 13:08:20;;;;;;;10.43;7.60;;;;;;;;;;4988693;28;20077;-83
2021/03/19 13:10:47;;;;;;;9.18;6.93;;;;;;;;;;4981767;28;20043;-82
2021/03/19 13:13:14;;;;;;;10.88;7.88;;;;;;;;;;4972544;28;20054;-84
2021/03/19 13:15:46;;;;;;;10.77;7.90;;;;;;;;;;4971322;28;20043;-84
2021/03/19 13:18:14;;;;;;;10.43;7.88;;;;;;;;;;4971566;28;20073;-84
2021/03/19 13:20:44;;;;;;;10.23;7.28;;;;;;;;;;4977510;28;20039;-86
2021/03/19 13:23:12;;;;;;;10.10;6.40;;;;;;;;;;4974611;28;20058;-83
2021/03/19 13:25:43;;;;;;;10.20;7.50;;;;;;;;;;4978343;28;20051;-83
2021/03/19 13:28:10;;;;;;;9.25;6.63;;;;;;;;;;4977305;28;20054;-84
2021/03/19 13:30:37;;;;;;;9.30;6.85;;;;;;;;;;4975189;28;20093;-85
2021/03/19 13:33:04;;;;;;;9.82;7.30;;;;;;;;;;4967800;28;20193;-83
2021/03/19 13:35:32;;;;;;;9.10;6.65;;;;;;;;;;4979445;28;20047;-84
2021/03/19 13:38:00;;;;;;;10.70;7.70;;;;;;;;;;4970473;28;20070;-82
2021/03/19 13:40:27;;;;;;;11.18;8.10;;;;;;;;;;4973949;28;20074;-82
2021/03/19 13:42:53;;;;;;;9.18;7.25;;;;;;;;;;4963790;28;20054;-82
2021/03/19 13:45:22;;;;;;;11.50;7.82;;;;;;;;;;4980016;28;20065;-81
2021/03/19 13:47:48;;;;;;;9.85;6.88;;;;;;;;;;4971595;28;20053;-82
2021/03/19 13:50:15;;;;;;;10.05;7.40;;;;;;;;;;4981870;28;20059;-82
2021/03/19 13:52:41;;;;;;;10.13;7.53;;;;;;;;;;4973627;28;20107;-82
2021/03/19 13:55:08;;;;;;;10.35;7.57;;;;;;;;;;4975550;28;20047;-81
2021/03/19 13:57:44;;;;;;;11.05;7.70;;;;;;;;;;4972329;28;20042;-82
2021/03/19 14:00:12;;;;;;;10.60;7.97;;;;;;;;;;4978484;28;20120;-81
2021/03/19 14:02:40;;;;;;;11.48;8.52;;;;;;;;;;4976273;28;20434;-82
2021/03/19 14:05:07;;;;;;;10.48;7.80;;;;;;;;;;4984587;28;20047;-81
2021/03/19 14:07:34;;;;;;;11.05;8.05;;;;;;;;;;4973839;28;20513;-85
2021/03/19 14:10:00;;;;;;;13.02;8.77;;;;;;;;;;4971736;28;20138;-81
2021/03/19 14:12:26;;;;;;;12.93;8.38;;;;;;;;;;4977918;28;20054;-81
2021/03/19 14:14:52;;;;;;;13.10;8.27;;;;;;;;;;4971424;28;20046;-82
2021/03/19 14:17:20;;;;;;;12.25;9.20;;;;;;;;;;4967439;28;20064;-82
2021/03/19 14:19:47;;;;;;;16.48;12.20;;;;;;;;;;4969778;28;20059;-83
2021/03/19 14:22:16;;;;;;;13.30;9.63;;;;;;;;;;4962568;28;20491;-84
2021/03/19 14:24:42;;;;;;;13.45;8.85;;;;;;;;;;4964519;28;20050;-80
2021/03/19 14:27:08;;;;;;;11.93;8.02;;;;;;;;;;4966068;28;20499;-82
2021/03/19 14:29:34;;;;;;;13.13;9.48;;;;;;;;;;4979477;28;20106;-82
2021/03/19 14:32:00;;;;;;;11.25;8.90;;;;;;;;;;4960550;28;20493;-82
2021/03/19 14:34:26;;;;;;;13.98;8.27;;;;;;;;;;4974407;28;20047;-82
2021/03/19 14:36:53;;;;;;;11.82;8.50;;;;;;;;;;4979600;28;20074;-82
2021/03/19 14:39:19;;;;;;;12.57;8.20;;;;;;;;;;4977115;28;20059;-82
2021/03/19 14:41:47;;;;;;;12.65;8.70;;;;;;;;;;4968347;28;20071;-83
2021/03/19 14:44:13;;;;;;;7.95;5.00;;;;;;;;;;4959012;29;20142;-81
2021/03/19 14:46:39;;;;;;;6.05;4.03;;;;;;;;;;4963403;28;20122;-81
2021/03/19 14:49:05;;;;;;;6.00;4.13;;;;;;;;;;4968534;28;20061;-81
2021/03/19 14:51:31;;;;;;;5.93;3.75;;;;;;;;;;4963398;28;20039;-81